Time;durP1;ratioP1;P1;durP2;ratioP2;P2;SDS_P1;SDS_P2;PMS_P1;PMS_P2;Temp;Humidity;BMP_temperature;BMP_pressure;BME280_temperature;BME280_humidity;BME280_pressure;Samples;Min_cycle;Max_cycle;Signal;HPM_P1;HPM_P2
2023/02/13 00:02:23;;;;;;;;;;;;;;;20.23;49.61;103255.84;5047841;28;3008;-64
2023/02/13 00:04:50;;;;;;;;;;;;;;;20.22;49.66;103244.91;5055357;28;3009;-64
2023/02/13 00:07:16;;;;;;;;;;;;;;;20.23;49.78;103243.56;5053872;28;3231;-64
2023/02/13 00:09:42;;;;;;;;;;;;;;;20.22;49.78;103247.78;5053806;28;3065;-65
2023/02/13 00:12:09;;;;;;;;;;;;;;;20.22;49.61;103237.03;5053200;28;3384;-64
2023/02/13 00:14:35;;;;;;;;;;;;;;;20.23;49.51;103246.44;5052221;28;2992;-64
2023/02/13 00:17:02;;;;;;;;;;;;;;;20.21;49.73;103249.91;5055448;28;3117;-64
2023/02/13 00:19:28;;;;;;;;;;;;;;;20.20;49.75;103251.28;5057000;28;2953;-64
2023/02/13 00:21:54;;;;;;;;;;;;;;;20.20;49.65;103250.50;5057099;28;2773;-64
2023/02/13 00:24:21;;;;;;;;;;;;;;;20.19;49.68;103246.84;5052973;28;3076;-64
2023/02/13 00:26:47;;;;;;;;;;;;;;;20.19;49.67;103243.22;5057392;28;2499;-64
2023/02/13 00:29:13;;;;;;;;;;;;;;;20.18;49.75;103235.94;5056072;28;3052;-64
2023/02/13 00:31:40;;;;;;;;;;;;;;;20.18;49.69;103235.94;5053428;28;2835;-64
2023/02/13 00:34:06;;;;;;;;;;;;;;;20.17;49.73;103245.94;5046614;28;3073;-64
2023/02/13 00:36:33;;;;;;;;;;;;;;;20.18;49.61;103235.94;5052764;28;2871;-64
2023/02/13 00:39:00;;;;;;;;;;;;;;;20.17;49.59;103240.16;5052796;28;3115;-64
2023/02/13 00:41:26;;;;;;;;;;;;;;;20.15;49.60;103237.88;5054093;28;3058;-64
2023/02/13 00:43:52;;;;;;;;;;;;;;;20.16;49.74;103235.75;5051993;28;3327;-64
2023/02/13 00:46:19;;;;;;;;;;;;;;;20.16;49.63;103232.88;5045206;28;3009;-64
2023/02/13 00:48:45;;;;;;;;;;;;;;;20.16;49.73;103227.13;5048198;28;2854;-64
2023/02/13 00:51:12;;;;;;;;;;;;;;;20.15;49.73;103222.75;5052635;28;2527;-64
2023/02/13 00:53:38;;;;;;;;;;;;;;;20.13;49.85;103229.06;5052129;28;3039;-64
2023/02/13 00:56:05;;;;;;;;;;;;;;;20.13;49.63;103234.06;5055714;28;2907;-64
2023/02/13 00:58:31;;;;;;;;;;;;;;;20.13;49.66;103234.06;5051825;28;3092;-64
2023/02/13 01:00:57;;;;;;;;;;;;;;;20.12;49.65;103236.19;5057100;28;3050;-64
2023/02/13 01:03:25;;;;;;;;;;;;;;;20.13;49.51;103236.94;5052496;28;2937;-64
2023/02/13 01:05:51;;;;;;;;;;;;;;;20.12;49.56;103233.31;5060838;28;3148;-64
2023/02/13 01:08:18;;;;;;;;;;;;;;;20.12;49.61;103235.44;5056044;28;2927;-64
2023/02/13 01:10:45;;;;;;;;;;;;;;;20.11;49.64;103231.78;5047220;28;2973;-64
2023/02/13 01:13:12;;;;;;;;;;;;;;;20.11;49.55;103231.00;5047047;28;2965;-64
2023/02/13 01:15:38;;;;;;;;;;;;;;;20.11;49.43;103236.78;5051857;28;2917;-64
2023/02/13 01:18:05;;;;;;;;;;;;;;;20.09;49.49;103235.25;5053236;28;3410;-64
2023/02/13 01:20:32;;;;;;;;;;;;;;;20.09;49.54;103235.25;5054501;28;2928;-64
2023/02/13 01:22:58;;;;;;;;;;;;;;;20.09;49.47;103228.75;5050329;28;3089;-64
2023/02/13 01:25:24;;;;;;;;;;;;;;;20.08;49.50;103239.47;5050773;28;2915;-64
2023/02/13 01:27:51;;;;;;;;;;;;;;;20.08;49.50;103239.47;5051203;28;3129;-64
2023/02/13 01:30:17;;;;;;;;;;;;;;;20.08;49.41;103235.84;5050726;28;2649;-64
2023/02/13 01:32:44;;;;;;;;;;;;;;;20.07;49.47;103231.44;5055669;28;2729;-64
2023/02/13 01:35:12;;;;;;;;;;;;;;;20.05;49.53;103237.78;5052593;28;3005;-64
2023/02/13 01:37:38;;;;;;;;;;;;;;;20.06;49.49;103230.66;5047715;28;2988;-64
2023/02/13 01:40:05;;;;;;;;;;;;;;;20.06;49.39;103230.66;5060140;28;2799;-64
2023/02/13 01:42:32;;;;;;;;;;;;;;;20.06;49.39;103230.66;5048468;28;2990;-64
2023/02/13 01:44:59;;;;;;;;;;;;;;;20.05;49.41;103229.16;5067502;28;2444;-64
2023/02/13 01:47:36;;;;;;;;;;;;;;;20.04;49.39;103233.41;5054312;28;2829;-64
2023/02/13 01:50:10;;;;;;;;;;;;;;;20.04;49.30;103226.84;5046074;28;2980;-64
2023/02/13 01:52:37;;;;;;;;;;;;;;;20.04;49.35;103227.63;5052542;28;3003;-63
2023/02/13 01:55:03;;;;;;;;;;;;;;;20.02;49.38;103224.59;5055380;28;2925;-64
2023/02/13 01:57:30;;;;;;;;;;;;;;;20.03;49.34;103225.34;5048983;28;2936;-64
2023/02/13 01:59:58;;;;;;;;;;;;;;;20.02;49.27;103224.59;5043451;28;2928;-64
2023/02/13 02:02:26;;;;;;;;;;;;;;;20.02;49.40;103230.34;5040811;28;3045;-64
2023/02/13 02:04:53;;;;;;;;;;;;;;;20.02;49.43;103224.59;5051850;28;2600;-64
2023/02/13 02:07:20;;;;;;;;;;;;;;;20.01;49.44;103220.16;5034322;28;3140;-64
2023/02/13 02:09:47;;;;;;;;;;;;;;;20.00;49.31;103226.53;5053702;28;2643;-64
2023/02/13 02:12:53;;;;;;;;;;;;;;;20.00;49.29;103221.53;5050570;28;3035;-64
2023/02/13 02:15:20;;;;;;;;;;;;;;;20.01;49.31;103219.41;4966352;28;3014;-64
2023/02/13 02:17:46;;;;;;;;;;;;;;;19.99;49.48;103225.75;4964816;28;3029;-64
2023/02/13 02:20:28;;;;;;;;;;;;;;;19.98;49.33;103221.34;4963104;28;2985;-64
2023/02/13 02:23:15;;;;;;;;;;;;;;;19.99;49.37;103220.00;4965557;28;3178;-64
2023/02/13 02:25:59;;;;;;;;;;;;;;;19.98;49.32;103230.00;4969651;28;3081;-64
2023/02/13 02:28:45;;;;;;;;;;;;;;;19.98;49.70;103230.00;5036133;28;3254;-64
2023/02/13 02:31:30;;;;;;;;;;;;;;;19.98;49.35;103234.97;5054955;28;3579;-64
2023/02/13 02:34:04;;;;;;;;;;;;;;;19.96;49.21;103229.81;5055392;28;3768;-64
2023/02/13 02:36:51;;;;;;;;;;;;;;;19.97;49.31;103233.44;5030457;28;3136;-64
2023/02/13 02:39:22;;;;;;;;;;;;;;;19.97;49.35;103221.94;5044427;28;3204;-64
2023/02/13 02:42:03;;;;;;;;;;;;;;;19.95;49.35;103231.19;5056108;28;3303;-64
2023/02/13 02:44:38;;;;;;;;;;;;;;;19.95;49.25;103230.38;5061484;28;3058;-64
2023/02/13 02:49:57;;;;;;;;;;;;;;;19.94;49.24;103229.63;5059471;28;3069;-64
2023/02/13 02:52:29;;;;;;;;;;;;;;;19.94;49.25;103228.88;5060712;28;2928;-64
2023/02/13 02:55:06;;;;;;;;;;;;;;;19.92;49.33;103226.56;5057136;28;3192;-64
2023/02/13 03:06:09;;;;;;;;;;;;;;;19.92;49.26;103238.09;5042660;28;2933;-64
2023/02/13 03:13:17;;;;;;;;;;;;;;;19.92;49.23;103234.44;5058472;28;1969;-64
2023/02/13 03:14:12;;;;;;;;;;;;;;;19.91;49.26;103245.19;5049959;28;3076;-64
2023/02/13 03:22:26;;;;;;;;;;;;;;;19.89;49.17;103242.16;5057442;28;2931;-64
2023/02/13 03:25:03;;;;;;;;;;;;;;;19.90;49.14;103245.78;5051586;28;2746;-63
2023/02/13 03:30:27;;;;;;;;;;;;;;;19.89;49.18;103245.03;5055282;28;2677;-64
2023/02/13 03:32:53;;;;;;;;;;;;;;;19.88;49.16;103237.72;5057229;28;3014;-64
2023/02/13 03:38:39;;;;;;;;;;;;;;;19.88;49.05;103240.59;5053358;28;2875;-64
2023/02/13 03:41:18;;;;;;;;;;;;;;;19.88;49.09;103243.47;5056750;28;2840;-63
2023/02/13 03:43:51;;;;;;;;;;;;;;;19.90;49.05;103229.28;5052434;28;3023;-64
2023/02/13 03:46:17;;;;;;;;;;;;;;;19.92;48.97;103229.47;5054744;28;2828;-64
2023/02/13 03:51:33;;;;;;;;;;;;;;;19.96;48.90;103241.31;5051975;28;2938;-64
2023/02/13 03:54:00;;;;;;;;;;;;;;;19.97;48.81;103234.19;5056218;28;2774;-64
2023/02/13 03:59:21;;;;;;;;;;;;;;;20.00;49.04;103221.53;5054348;28;1803;-64
2023/02/13 04:01:50;;;;;;;;;;;;;;;20.00;49.13;103223.66;5048396;28;2945;-64
2023/02/13 04:04:23;;;;;;;;;;;;;;;20.00;49.12;103224.41;5050623;28;2849;-64
2023/02/13 04:06:55;;;;;;;;;;;;;;;20.01;48.94;103234.56;5056203;28;3020;-64
2023/02/13 04:09:21;;;;;;;;;;;;;;;20.00;49.08;103221.53;5052913;28;2848;-64
2023/02/13 04:12:01;;;;;;;;;;;;;;;20.00;49.06;103210.03;5058627;28;2717;-64
2023/02/13 04:14:29;;;;;;;;;;;;;;;20.00;49.18;103212.91;5056318;28;1534;-64
2023/02/13 04:16:56;;;;;;;;;;;;;;;20.02;49.23;103218.84;5056631;28;2935;-64
2023/02/13 04:19:23;;;;;;;;;;;;;;;20.02;49.18;103218.06;5050867;28;3142;-64
2023/02/13 04:21:54;;;;;;;;;;;;;;;20.02;49.18;103218.84;5050220;28;3238;-64
2023/02/13 04:24:20;;;;;;;;;;;;;;;20.05;49.20;103228.41;5054194;28;3091;-64
2023/02/13 04:26:47;;;;;;;;;;;;;;;20.05;49.26;103217.66;5056351;28;2871;-64
2023/02/13 04:29:13;;;;;;;;;;;;;;;20.06;49.25;103219.16;5051451;28;3096;-64
2023/02/13 04:31:39;;;;;;;;;;;;;;;20.06;49.35;103216.28;5055610;28;2483;-64
2023/02/13 04:34:06;;;;;;;;;;;;;;;20.05;49.40;103206.13;5052833;28;3001;-64
2023/02/13 04:36:32;;;;;;;;;;;;;;;20.05;49.38;103206.13;5056476;28;2996;-64
2023/02/13 04:38:59;;;;;;;;;;;;;;;20.06;49.16;103206.91;5053981;28;3000;-64
2023/02/13 04:41:25;;;;;;;;;;;;;;;20.04;49.39;103203.84;5054362;28;1718;-64
2023/02/13 04:43:51;;;;;;;;;;;;;;;20.05;49.43;103200.38;5050246;28;2997;-64
2023/02/13 04:46:18;;;;;;;;;;;;;;;20.05;49.43;103202.50;5056915;28;2209;-64
2023/02/13 04:48:44;;;;;;;;;;;;;;;20.05;49.32;103194.63;5054604;28;2958;-64
2023/02/13 04:51:11;;;;;;;;;;;;;;;20.04;49.33;103198.88;5057116;28;2981;-64
2023/02/13 04:53:37;;;;;;;;;;;;;;;20.06;49.27;103204.78;5053529;28;3250;-64
2023/02/13 04:56:03;;;;;;;;;;;;;;;20.07;49.36;103202.69;5056368;28;3094;-64
2023/02/13 04:58:30;;;;;;;;;;;;;;;20.08;49.42;103198.44;5054763;28;3065;-64
2023/02/13 05:00:56;;;;;;;;;;;;;;;20.08;49.47;103195.56;5054227;28;3075;-64
2023/02/13 05:03:23;;;;;;;;;;;;;;;20.08;49.51;103193.44;5051870;28;2670;-64
2023/02/13 05:05:49;;;;;;;;;;;;;;;20.09;49.36;103199.97;5050694;28;2908;-64
2023/02/13 05:08:16;;;;;;;;;;;;;;;20.08;49.36;103204.94;5048514;28;2980;-64
2023/02/13 05:10:42;;;;;;;;;;;;;;;20.09;49.42;103206.50;5055503;28;2690;-64
2023/02/13 05:13:08;;;;;;;;;;;;;;;20.09;49.37;103205.75;5053981;28;3044;-64
2023/02/13 05:15:35;;;;;;;;;;;;;;;20.07;49.34;103205.56;5053728;28;3166;-64
2023/02/13 05:18:01;;;;;;;;;;;;;;;20.08;49.24;103213.59;5048494;28;2544;-64
2023/02/13 05:20:27;;;;;;;;;;;;;;;20.08;49.28;103209.94;5051933;28;3047;-64
2023/02/13 05:25:39;;;;;;;;;;;;;;;20.08;49.28;103204.94;5052118;28;3017;-64
2023/02/13 05:29:17;;;;;;;;;;;;;;;20.09;49.33;103206.50;5051055;28;2928;-64
2023/02/13 05:30:51;;;;;;;;;;;;;;;20.09;49.33;103212.25;5049173;28;3066;-64
2023/02/13 05:33:18;;;;;;;;;;;;;;;20.12;49.63;103218.16;5047790;28;3323;-64
2023/02/13 05:35:44;;;;;;;;;;;;;;;20.12;49.52;103212.41;5048402;28;3113;-64
2023/02/13 05:38:11;;;;;;;;;;;;;;;20.12;49.50;103221.06;5051529;28;2825;-64
2023/02/13 05:40:37;;;;;;;;;;;;;;;20.13;49.58;103217.56;5051614;28;1796;-64
2023/02/13 05:43:03;;;;;;;;;;;;;;;20.13;49.61;103214.69;5047624;28;3049;-64
2023/02/13 05:45:30;;;;;;;;;;;;;;;20.13;49.63;103213.94;5051195;28;3157;-63
2023/02/13 05:47:56;;;;;;;;;;;;;;;20.12;49.60;103210.31;5052437;28;2634;-63
2023/02/13 05:50:22;;;;;;;;;;;;;;;20.12;49.59;103203.78;5052224;28;3420;-63
2023/02/13 05:52:49;;;;;;;;;;;;;;;20.13;49.32;103211.06;5050009;28;2862;-63
2023/02/13 05:55:15;;;;;;;;;;;;;;;20.12;49.42;103216.06;5047040;28;3056;-64
2023/02/13 05:57:41;;;;;;;;;;;;;;;20.12;49.61;103227.56;5049114;28;2995;-64
2023/02/13 06:00:08;;;;;;;;;;;;;;;20.13;49.83;103216.81;5043235;28;2815;-63
2023/02/13 06:02:34;;;;;;;;;;;;;;;20.12;49.76;103226.81;5047208;28;3062;-64
2023/02/13 06:05:00;;;;;;;;;;;;;;;20.15;49.80;103225.63;5054433;28;3028;-63
2023/02/13 06:07:27;;;;;;;;;;;;;;;20.16;49.80;103232.88;5053463;28;3125;-64
2023/02/13 06:09:53;;;;;;;;;;;;;;;20.17;49.66;103237.28;5052609;28;3098;-65
2023/02/13 06:12:19;;;;;;;;;;;;;;;20.26;49.85;103243.16;5048785;28;2880;-64
2023/02/13 06:14:46;;;;;;;;;;;;;;;20.19;49.62;103232.47;5040819;28;3013;-62
2023/02/13 06:17:12;;;;;;;;;;;;;;;20.12;50.00;103236.19;5043470;28;3051;-62
2023/02/13 06:19:38;;;;;;;;;;;;;;;20.08;50.17;103239.47;5047527;28;2981;-63
2023/02/13 06:22:05;;;;;;;;;;;;;;;20.18;49.98;103235.94;5048894;28;3353;-66
2023/02/13 06:24:31;;;;;;;;;;;;;;;19.43;51.48;103242.44;5056177;28;2721;-66
2023/02/13 06:26:58;;;;;;;;;;;;;;;20.15;52.11;103231.38;5048021;28;3239;-68
2023/02/13 06:29:24;;;;;;;;;;;;;;;20.39;52.30;103241.31;5046129;28;4373;-69
2023/02/13 06:31:56;;;;;;;;;;;;;;;20.41;51.36;103242.25;5057911;28;3506;-70
2023/02/13 06:34:22;;;;;;;;;;;;;;;20.42;50.91;103238.00;5059931;28;3061;-72
2023/02/13 06:36:49;;;;;;;;;;;;;;;20.40;51.08;103242.81;5050365;28;3138;-70
2023/02/13 06:39:16;;;;;;;;;;;;;;;20.40;51.51;103237.81;5063135;28;3173;-67
2023/02/13 06:41:42;;;;;;;;;;;;;;;20.34;51.35;103243.09;5053107;28;3129;-69
2023/02/13 06:44:08;;;;;;;;;;;;;;;20.33;51.97;103247.31;5058842;28;2799;-68
2023/02/13 06:46:35;;;;;;;;;;;;;;;20.35;51.60;103247.47;5054899;28;3028;-72
2023/02/13 06:49:01;;;;;;;;;;;;;;;20.40;51.57;103246.47;5059176;28;2831;-69
2023/02/13 06:51:27;;;;;;;;;;;;;;;20.40;51.56;103245.69;5055207;28;3132;-68
2023/02/13 06:53:54;;;;;;;;;;;;;;;20.38;52.44;103254.91;5056980;28;3089;-68
2023/02/13 06:56:20;;;;;;;;;;;;;;;20.36;52.83;103257.63;5057293;28;2123;-68
2023/02/13 06:58:46;;;;;;;;;;;;;;;20.38;52.26;103254.91;5049841;28;3072;-68
2023/02/13 07:01:13;;;;;;;;;;;;;;;20.35;51.92;103255.34;5057111;28;3390;-69
2023/02/13 07:03:39;;;;;;;;;;;;;;;20.36;51.55;103260.50;5056147;28;2989;-68
2023/02/13 07:06:06;;;;;;;;;;;;;;;20.36;51.15;103257.63;5058727;28;3586;-69
2023/02/13 07:08:32;;;;;;;;;;;;;;;20.34;50.86;103266.09;5052360;28;3163;-69
2023/02/13 07:10:58;;;;;;;;;;;;;;;20.35;50.44;103261.88;5052121;28;3291;-69
2023/02/13 07:13:25;;;;;;;;;;;;;;;19.60;49.88;103268.38;5053411;28;3436;-71
2023/02/13 07:15:51;;;;;;;;;;;;;;;19.86;50.34;103269.22;5058012;28;3968;-70
2023/02/13 07:18:17;;;;;;;;;;;;;;;20.32;51.46;103262.28;5061402;28;2130;-74
2023/02/13 07:20:44;;;;;;;;;;;;;;;20.72;51.28;103264.94;5058980;28;1666;-77
2023/02/13 07:23:10;;;;;;;;;;;;;;;20.93;51.02;103262.38;5055431;28;5728;-74
2023/02/13 07:25:36;;;;;;;;;;;;;;;21.05;50.57;103262.66;5056149;28;4870;-75
2023/02/13 07:28:03;;;;;;;;;;;;;;;21.15;50.20;103274.22;5056239;28;3561;-75
2023/02/13 07:30:30;;;;;;;;;;;;;;;21.22;49.83;103263.97;5059361;28;2671;-75
2023/02/13 07:32:58;;;;;;;;;;;;;;;21.32;49.86;103276.28;5054350;28;3064;-74
2023/02/13 07:35:24;;;;;;;;;;;;;;;21.38;49.70;103276.81;5055558;28;3202;-74
2023/02/13 07:37:51;;;;;;;;;;;;;;;21.44;49.39;103280.22;5057518;28;3186;-74
2023/02/13 07:40:18;;;;;;;;;;;;;;;21.50;49.29;103277.03;5057649;28;3072;-72
2023/02/13 07:42:44;;;;;;;;;;;;;;;21.56;48.79;103283.31;5053408;28;2795;-74
2023/02/13 07:45:10;;;;;;;;;;;;;;;21.58;48.34;103286.34;5048086;28;3652;-75
2023/02/13 07:47:37;;;;;;;;;;;;;;;21.55;48.26;103284.66;5049178;28;3802;-79
2023/02/13 07:50:04;;;;;;;;;;;;;;;21.50;48.68;103282.81;5060505;28;3080;-78
2023/02/13 07:52:32;;;;;;;;;;;;;;;21.44;48.54;103280.22;5062453;28;2875;-74
2023/02/13 07:54:58;;;;;;;;;;;;;;;21.57;48.38;103281.94;5053011;28;4121;-75
2023/02/13 07:57:24;;;;;;;;;;;;;;;21.61;47.99;103284.38;5057976;28;3041;-76
2023/02/13 07:59:51;;;;;;;;;;;;;;;21.59;47.81;103279.22;5058033;28;1649;-82
2023/02/13 08:02:17;;;;;;;;;;;;;;;21.63;48.10;103288.19;5054400;28;1671;-78
2023/02/13 08:04:46;;;;;;;;;;;;;;;21.65;48.09;103294.13;5060862;28;1649;-79
2023/02/13 08:07:13;;;;;;;;;;;;;;;21.60;47.83;103280.75;5055270;28;1625;-82
2023/02/13 08:12:24;;;;;;;;;;;;;;;20.63;45.46;103288.66;5045329;28;3177;-74
2023/02/13 08:14:52;;;;;;;;;;;;;;;20.67;45.60;103292.66;5051305;28;3447;-72
2023/02/13 08:17:18;;;;;;;;;;;;;;;20.70;45.88;103282.81;5055799;28;1792;-73
2023/02/13 08:19:44;;;;;;;;;;;;;;;20.72;46.04;103288.00;5054603;28;3011;-74
2023/02/13 08:22:11;;;;;;;;;;;;;;;20.74;46.11;103296.03;5054427;28;1812;-74
2023/02/13 08:24:37;;;;;;;;;;;;;;;20.77;46.15;103297.72;5046998;28;3497;-74
2023/02/13 08:27:03;;;;;;;;;;;;;;;20.75;46.28;103298.31;5047911;28;3086;-74
2023/02/13 08:29:30;;;;;;;;;;;;;;;20.77;46.29;103292.72;5052038;28;3198;-74
2023/02/13 08:31:56;;;;;;;;;;;;;;;20.76;46.21;103294.09;5045722;28;3897;-74
2023/02/13 08:34:22;;;;;;;;;;;;;;;20.74;46.38;103296.81;5052499;28;3567;-75
2023/02/13 08:36:49;;;;;;;;;;;;;;;20.75;46.64;103292.56;5050959;28;3055;-74
2023/02/13 08:39:15;;;;;;;;;;;;;;;20.74;46.49;103291.03;5054290;28;3329;-75
2023/02/13 08:41:42;;;;;;;;;;;;;;;20.74;46.51;103296.81;5056711;28;1851;-74
2023/02/13 08:44:09;;;;;;;;;;;;;;;20.75;46.64;103295.44;5049520;28;3288;-74
2023/02/13 08:46:35;;;;;;;;;;;;;;;20.74;46.82;103291.03;5053916;28;3185;-74
2023/02/13 08:49:01;;;;;;;;;;;;;;;20.73;46.74;103297.38;5048846;28;3248;-73
2023/02/13 08:51:28;;;;;;;;;;;;;;;20.72;46.98;103293.75;5046907;28;3165;-75
2023/02/13 08:53:54;;;;;;;;;;;;;;;20.87;47.19;103287.81;5059620;28;3070;-75
2023/02/13 08:56:20;;;;;;;;;;;;;;;20.95;46.80;103287.72;5059129;28;3137;-74
2023/02/13 08:58:47;;;;;;;;;;;;;;;21.06;46.64;103297.97;5051935;28;3233;-72
2023/02/13 09:01:13;;;;;;;;;;;;;;;21.09;46.58;103291.00;5053144;28;3463;-66
2023/02/13 09:03:40;;;;;;;;;;;;;;;21.11;46.61;103297.69;5045904;28;4584;-73
2023/02/13 09:06:06;;;;;;;;;;;;;;;21.20;46.75;103295.50;5056114;28;3303;-73
2023/02/13 09:08:36;;;;;;;;;;;;;;;21.15;46.63;103290.75;5055673;28;4363;-78
2023/02/13 09:11:02;;;;;;;;;;;;;;;21.08;46.76;103298.16;5058867;28;3101;-76
2023/02/13 09:13:29;;;;;;;;;;;;;;;20.87;46.24;103287.81;5062159;28;2923;-79
2023/02/13 09:15:59;;;;;;;;;;;;;;;20.92;46.17;103292.56;5057129;28;2986;-72
2023/02/13 09:18:26;;;;;;;;;;;;;;;20.97;45.92;103296.53;5057596;28;1640;-73
2023/02/13 09:21:02;;;;;;;;;;;;;;;20.87;45.82;103296.47;5056563;28;3411;-73
2023/02/13 09:23:31;;;;;;;;;;;;;;;20.97;46.27;103298.66;5053906;28;4564;-71
2023/02/13 09:25:59;;;;;;;;;;;;;;;21.12;46.35;103296.34;5048969;28;3450;-74
2023/02/13 09:28:25;;;;;;;;;;;;;;;21.19;46.47;103296.84;5048546;28;4681;-73
2023/02/13 09:30:52;;;;;;;;;;;;;;;21.26;46.64;103304.66;5044249;28;2927;-81
2023/02/13 09:33:18;;;;;;;;;;;;;;;21.36;46.61;103307.59;5056716;28;2976;-72
2023/02/13 09:35:45;;;;;;;;;;;;;;;21.33;46.46;103303.78;5060699;28;2980;-73
2023/02/13 09:38:11;;;;;;;;;;;;;;;21.21;46.48;103306.44;5053032;28;3148;-76
2023/02/13 09:40:43;;;;;;;;;;;;;;;21.14;46.67;103313.03;5045822;28;3385;-74
2023/02/13 09:43:12;;;;;;;;;;;;;;;21.21;46.72;103309.31;5049220;28;4860;-73
2023/02/13 09:45:38;;;;;;;;;;;;;;;21.13;47.25;103318.03;5056686;28;4179;-76
2023/02/13 09:48:04;;;;;;;;;;;;;;;20.85;47.22;103315.69;5051881;28;3094;-75
2023/02/13 09:50:32;;;;;;;;;;;;;;;20.74;47.67;103311.19;5043096;28;3397;-73
2023/02/13 09:52:58;;;;;;;;;;;;;;;20.59;47.84;103309.25;5037969;28;4211;-76
2023/02/13 09:55:30;;;;;;;;;;;;;;;20.39;47.02;103319.78;5046295;28;3820;-70
2023/02/13 09:58:09;;;;;;;;;;;;;;;20.65;46.75;103312.63;5041546;28;3043;-71
2023/02/13 10:00:39;;;;;;;;;;;;;;;20.82;47.15;103309.00;5055791;28;3010;-70
2023/02/13 10:03:20;;;;;;;;;;;;;;;20.95;47.21;103312.91;5048807;28;3169;-71
2023/02/13 10:05:49;;;;;;;;;;;;;;;20.97;47.10;103307.31;5047336;28;4845;-72
2023/02/13 10:08:18;;;;;;;;;;;;;;;21.00;47.39;103317.63;5046861;28;3145;-70
2023/02/13 10:10:51;;;;;;;;;;;;;;;20.99;47.48;103311.13;5046478;28;4579;-71
2023/02/13 10:13:18;;;;;;;;;;;;;;;21.13;47.16;103305.75;5045891;28;4511;-72
2023/02/13 10:15:48;;;;;;;;;;;;;;;21.14;47.23;103310.16;5050294;28;3028;-70
2023/02/13 10:18:15;;;;;;;;;;;;;;;21.17;47.27;103308.97;5039453;28;3032;-71
2023/02/13 10:20:46;;;;;;;;;;;;;;;21.17;47.35;103306.09;5050513;28;4411;-70
2023/02/13 10:23:21;;;;;;;;;;;;;;;21.27;46.92;103306.16;5045311;28;3038;-71
2023/02/13 10:25:55;;;;;;;;;;;;;;;21.26;47.59;103313.28;5042492;28;3132;-69
2023/02/13 10:28:28;;;;;;;;;;;;;;;21.26;47.36;103311.16;5042186;28;4781;-73
2023/02/13 10:30:55;;;;;;;;;;;;;;;21.30;47.47;103310.72;5050492;28;2410;-72
2023/02/13 10:33:24;;;;;;;;;;;;;;;21.26;47.47;103305.41;5045524;28;4670;-76
2023/02/13 10:35:53;;;;;;;;;;;;;;;21.24;47.60;103299.47;5052554;28;4524;-74
2023/02/13 10:38:20;;;;;;;;;;;;;;;21.41;47.59;103303.69;5052051;28;2952;-75
2023/02/13 10:40:49;;;;;;;;;;;;;;;21.47;47.29;103290.53;5053216;28;4038;-76
2023/02/13 10:43:17;;;;;;;;;;;;;;;21.50;47.32;103294.34;5060893;28;2206;-75
2023/02/13 10:45:48;;;;;;;;;;;;;;;21.63;47.33;103296.09;5042744;28;4535;-79
2023/02/13 10:56:24;;;;;;;;;;;;;;;21.30;46.73;103294.22;5038040;28;1638;-74
2023/02/13 10:59:01;;;;;;;;;;;;;;;21.21;46.98;103288.34;5036073;28;3575;-68
2023/02/13 11:01:32;;;;;;;;;;;;;;;21.19;47.84;103288.19;5049814;28;3157;-71
2023/02/13 11:04:06;;;;;;;;;;;;;;;21.38;47.22;103281.81;5054533;28;3222;-76
2023/02/13 11:06:34;;;;;;;;;;;;;;;21.38;47.25;103281.81;5047139;28;3032;-75
2023/02/13 11:09:00;;;;;;;;;;;;;;;21.44;47.42;103288.06;5057131;28;2854;-72
2023/02/13 11:11:27;;;;;;;;;;;;;;;21.46;47.23;103283.25;5053846;28;3082;-72
2023/02/13 11:14:06;;;;;;;;;;;;;;;21.50;46.83;103288.56;5053700;28;3239;-72
2023/02/13 11:17:01;;;;;;;;;;;;;;;21.52;46.87;103285.84;5046825;28;3109;-71
2023/02/13 11:19:46;;;;;;;;;;;;;;;21.49;46.76;103281.28;5041457;28;4479;-71
2023/02/13 11:22:13;;;;;;;;;;;;;;;21.42;46.74;103276.41;5054851;28;3074;-72
2023/02/13 11:24:49;;;;;;;;;;;;;;;21.31;46.69;103277.66;5057079;28;2014;-72
2023/02/13 11:27:16;;;;;;;;;;;;;;;21.29;46.95;103269.63;5051152;28;2978;-72
2023/02/13 11:29:55;;;;;;;;;;;;;;;21.29;46.98;103269.63;5053350;28;3047;-72
2023/02/13 11:32:22;;;;;;;;;;;;;;;21.14;47.08;103269.81;5043289;28;3550;-73
2023/02/13 11:34:50;;;;;;;;;;;;;;;21.25;47.52;103266.41;5052731;28;2925;-72
2023/02/13 11:37:17;;;;;;;;;;;;;;;21.23;47.17;103269.09;5053330;28;3908;-71
2023/02/13 11:39:44;;;;;;;;;;;;;;;21.15;47.67;103264.84;5049858;28;3028;-70
2023/02/13 11:42:14;;;;;;;;;;;;;;;21.39;47.70;103266.03;5047276;28;2973;-75
2023/02/13 11:44:41;;;;;;;;;;;;;;;21.39;47.05;103257.38;5048226;28;2923;-85
2023/02/13 11:47:07;;;;;;;;;;;;;;;21.39;47.26;103255.25;5048798;28;3024;-80
2023/02/13 11:49:34;;;;;;;;;;;;;;;21.48;47.56;103253.81;5049179;28;3057;-80
2023/02/13 11:52:05;;;;;;;;;;;;;;;21.50;47.52;103248.22;5042989;28;2921;-81
2023/02/13 11:54:35;;;;;;;;;;;;;;;21.51;47.38;103232.44;5049397;28;3012;-81
2023/02/13 11:57:22;;;;;;;;;;;;;;;21.49;47.57;103240.94;5050638;28;2986;-80
2023/02/13 11:59:49;;;;;;;;;;;;;;;21.46;47.53;103247.88;5040726;28;3043;-80
2023/02/13 12:02:16;;;;;;;;;;;;;;;21.44;47.94;103250.59;5039948;28;3068;-85
2023/02/13 12:04:43;;;;;;;;;;;;;;;21.46;47.81;103247.88;5048279;28;3039;-84
2023/02/13 12:07:35;;;;;;;;;;;;;;;21.44;47.74;103248.50;5048123;28;3009;-79
2023/02/13 12:10:05;;;;;;;;;;;;;;;21.45;48.00;103234.84;5046398;28;2998;-78
2023/02/13 12:12:32;;;;;;;;;;;;;;;21.48;47.75;103245.91;5051919;28;2724;-77
2023/02/13 12:15:00;;;;;;;;;;;;;;;21.46;47.76;103230.59;5048891;28;3102;-78
2023/02/13 12:17:26;;;;;;;;;;;;;;;21.47;47.81;103240.78;5054370;28;3169;-76
2023/02/13 12:19:57;;;;;;;;;;;;;;;21.69;48.34;103236.78;5046556;28;2946;-74
2023/02/13 12:22:50;;;;;;;;;;;;;;;21.74;48.13;103238.59;5045092;28;3567;-74
2023/02/13 12:25:25;;;;;;;;;;;;;;;21.92;47.95;103235.63;5024875;28;3065;-76
2023/02/13 12:28:09;;;;;;;;;;;;;;;22.21;47.41;103232.03;5046402;28;3070;-80
2023/02/13 12:30:43;;;;;;;;;;;;;;;22.31;46.70;103235.72;5050452;28;3248;-79
2023/02/13 12:33:32;;;;;;;;;;;;;;;21.96;47.50;103230.16;5042323;28;4496;-84
2023/02/13 12:36:11;;;;;;;;;;;;;;;21.87;47.96;103233.78;5045579;28;2893;-83
2023/02/13 12:38:51;;;;;;;;;;;;;;;21.82;47.78;103234.84;5052606;28;3016;-83
2023/02/13 12:41:18;;;;;;;;;;;;;;;21.81;48.08;103233.31;5044485;28;3490;-85
2023/02/13 12:43:48;;;;;;;;;;;;;;;21.80;47.87;103235.44;5046261;28;3037;-85
2023/02/13 12:46:33;;;;;;;;;;;;;;;21.91;47.84;103240.63;5048072;28;2961;-80
2023/02/13 12:49:03;;;;;;;;;;;;;;;21.94;47.85;103239.44;5051641;28;3010;-79
2023/02/13 12:51:30;;;;;;;;;;;;;;;21.96;47.60;103242.47;5049767;28;3127;-81
2023/02/13 12:54:03;;;;;;;;;;;;;;;21.97;47.58;103251.91;5047943;28;3043;-82
2023/02/13 12:56:51;;;;;;;;;;;;;;;22.01;47.74;103249.31;5051692;28;2758;-80
2023/02/13 12:59:28;;;;;;;;;;;;;;;22.03;47.64;103252.34;5052063;28;2749;-79
2023/02/13 13:01:59;;;;;;;;;;;;;;;22.01;47.60;103249.31;5044387;28;3005;-77
2023/02/13 13:04:35;;;;;;;;;;;;;;;22.03;47.78;103252.34;5048518;28;3053;-78
2023/02/13 13:07:17;;;;;;;;;;;;;;;21.98;47.64;103250.53;5043998;28;2980;-78
2023/02/13 13:09:58;;;;;;;;;;;;;;;22.03;47.83;103261.00;5039668;28;4182;-80
2023/02/13 13:12:33;;;;;;;;;;;;;;;22.06;47.53;103254.03;5051247;28;5291;-81
2023/02/13 13:15:04;;;;;;;;;;;;;;;22.07;47.69;103246.16;5054979;28;3677;-81
2023/02/13 13:17:33;;;;;;;;;;;;;;;22.09;47.42;103247.06;5054606;28;2895;-79
2023/02/13 13:20:14;;;;;;;;;;;;;;;22.10;47.58;103234.13;5050759;28;3218;-74
2023/02/13 13:22:43;;;;;;;;;;;;;;;22.03;47.44;103228.50;5046172;28;3000;-78
2023/02/13 13:25:11;;;;;;;;;;;;;;;21.91;47.79;103231.97;5047847;28;4417;-83
2023/02/13 13:27:43;;;;;;;;;;;;;;;21.89;48.18;103237.59;5042866;28;4287;-82
2023/02/13 13:30:28;;;;;;;;;;;;;;;21.80;48.20;103229.66;5048727;28;3232;-73
2023/02/13 13:33:01;;;;;;;;;;;;;;;21.92;48.48;103235.63;5052091;28;3087;-76
2023/02/13 13:35:28;;;;;;;;;;;;;;;21.98;48.13;103235.34;5051653;28;2990;-74
2023/02/13 13:38:05;;;;;;;;;;;;;;;21.98;48.01;103233.22;5045783;28;3028;-80
2023/02/13 13:40:58;;;;;;;;;;;;;;;22.06;47.72;103236.72;5054467;28;3014;-81
2023/02/13 13:43:40;;;;;;;;;;;;;;;22.04;47.99;103225.03;5047256;28;2965;-84
2023/02/13 13:46:09;;;;;;;;;;;;;;;21.44;48.07;103228.31;5043956;28;3200;-70